Latest Weather Observations for Geelong Racecourse

IDV60901

Issued at 10:45 pm EST Thursday 24 April 2014 (issued every 10 minutes, with the page automatically refreshed every 10 minutes)

About weather observations | Map of Melbourne area stations | Latest observations for Melbourne area | Other Formats
Station Details ID: 087184 Name: GEELONG RACECOURSE Lat: -38.17 Lon: 144.38 Height: 12.9 m
Data from the previous 72 hours. | See also: Recent months at Geelong Racecourse
Date/Time
EST
Tmp

°C
App
Tmp
°C
Dew
Point
°C
Rel
Hum
%
Delta-T

°C
Wind Press
QNH
hPa
Press
MSL
hPa
Rain
since
9 am
mm
Dir
 
Spd
km/h
Gust
km/h
Spd
kts
Gust
kts
24/10:30pm 9.8 7.4 5.4 74 2.0 WSW 7 11 4 6 1021.9 - 0.0
24/10:00pm 9.4 6.7 5.4 76 1.8 WSW 9 11 5 6 1022.0 1022.0 0.0
24/09:30pm 9.6 7.4 6.1 79 1.6 WSW 7 9 4 5 1021.8 - 0.0
24/09:00pm 8.3 6.1 5.1 80 1.4 WSW 6 9 3 5 1021.5 1021.5 0.0
24/08:30pm 8.4 6.2 5.2 80 1.4 WSW 6 7 3 4 1021.2 - 0.0
24/08:00pm 9.4 7.2 5.4 76 1.8 WSW 6 7 3 4 1020.8 1020.8 0.0
24/07:30pm 9.9 8.1 5.5 74 2.0 SSW 4 6 2 3 1020.6 - 0.0
24/07:00pm 10.4 8.6 5.4 71 2.3 SSW 4 6 2 3 1020.3 1020.3 0.0
24/06:30pm 10.7 8.5 5.3 69 2.5 SSW 6 7 3 4 1020.0 - 0.0
24/06:00pm 11.7 8.9 5.3 65 2.9 SSW 9 13 5 7 1019.4 1019.4 0.0
24/05:30pm 12.8 9.4 5.7 62 3.3 S 13 19 7 10 1018.9 - 0.0
24/05:00pm 13.8 9.6 5.7 58 3.8 S 17 24 9 13 1018.6 1018.6 0.0
24/04:30pm 14.0 9.4 5.6 57 4.0 S 19 24 10 13 1018.3 - 0.0
24/04:00pm 15.2 11.3 5.4 52 4.6 SSW 15 20 8 11 1018.1 1018.1 0.0
24/03:30pm 14.4 10.0 6.5 59 3.8 S 19 26 10 14 1017.9 - 0.0
24/03:00pm 15.1 10.7 6.4 56 4.2 S 19 22 10 12 1017.6 1017.6 0.0
24/02:30pm 16.6 12.8 7.5 55 4.6 SSW 17 24 9 13 1017.5 - 0.0
24/02:00pm 16.5 12.0 4.2 44 5.7 SSW 17 24 9 13 1017.2 1017.2 0.0
24/01:30pm 15.8 11.1 3.3 43 5.7 SW 17 30 9 16 1017.2 - 0.0
24/01:00pm 15.4 11.7 4.2 47 5.2 SW 13 17 7 9 1017.3 1017.3 0.0
24/12:30pm 16.1 10.8 2.9 41 6.0 WSW 20 30 11 16 1017.4 - 0.0
24/12:00pm 15.9 10.9 3.4 43 5.7 SW 19 24 10 13 1017.4 1017.4 0.0
24/11:30am 15.4 10.2 3.5 45 5.4 WSW 20 30 11 16 1017.2 - 0.0
24/11:00am 16.4 11.4 4.4 45 5.6 SW 20 26 11 14 1016.9 1016.9 0.0
24/10:30am 15.3 8.4 4.7 49 5.0 SW 30 39 16 21 1016.5 - 0.0
24/10:00am 15.5 11.0 7.0 57 4.2 WSW 20 30 11 16 1016.0 1016.0 0.0
24/09:30am 15.1 10.4 7.9 62 3.6 WSW 22 32 12 17 1015.6 - 0.0
24/09:00am 14.7 11.7 10.5 76 2.2 W 17 26 9 14 1015.2 1015.2 0.0
24/08:30am 13.4 11.0 11.5 88 1.0 W 15 22 8 12 1014.5 - 0.0
24/08:00am 13.2 11.3 11.9 92 0.7 W 13 20 7 11 1013.6 1013.6 0.0
24/07:30am 12.9 10.2 11.6 92 0.7 WNW 17 26 9 14 1012.3 - 0.0
24/07:00am 13.9 9.9 10.5 80 1.8 WNW 22 33 12 18 1011.8 1011.8 0.0
24/06:30am 14.4 11.1 8.1 66 3.1 NW 15 24 8 13 1011.0 - 0.0
24/06:00am 14.1 11.2 6.7 61 3.6 NW 11 19 6 10 1010.6 1010.6 0.0
24/05:30am 13.9 10.4 5.5 57 4.0 NNW 13 17 7 9 1010.1 - 0.0
24/05:00am 13.2 10.4 5.1 58 3.8 NNW 9 13 5 7 1010.0 1010.0 0.0
24/04:30am 12.7 10.3 5.1 60 3.5 NNW 7 9 4 5 1009.7 - 0.0
24/04:00am 12.1 9.2 4.8 61 3.3 NW 9 11 5 6 1009.5 1009.5 0.0
24/03:30am 13.5 9.4 4.6 55 4.1 NNW 15 22 8 12 1009.4 - 0.0
24/03:00am 11.9 9.1 5.3 64 3.1 NNW 9 15 5 8 1009.7 1009.7 0.0
24/02:30am 11.7 9.0 5.6 66 2.8 NNW 9 15 5 8 1010.0 - 0.0
24/02:00am 11.0 8.9 5.7 70 2.5 NW 6 9 3 5 1010.4 1010.4 0.0
24/01:30am 11.0 8.8 6.2 72 2.2 N 7 9 4 5 1010.6 - 0.0
24/01:00am 10.5 8.9 6.5 76 1.9 NNW 4 6 2 3 1010.6 1010.6 0.0
24/12:30am 10.9 9.3 6.5 74 2.1 NNW 4 6 2 3 1011.0 - 0.0
24/12:00am 11.4 9.5 6.7 73 2.2 NNW 6 7 3 4 1011.3 1011.3 0.0
 
Date/Time
EST
Tmp

°C
App
Tmp
°C
Dew
Point
°C
Rel
Hum
%
Delta-T

°C
Wind Press
QNH
hPa
Press
MSL
hPa
Rain
since
9 am
mm
Dir
 
Spd
km/h
Gust
km/h
Spd
kts
Gust
kts
23/11:30pm 11.3 9.1 6.4 72 2.3 NNW 7 9 4 5 1011.7 - 0.0
23/11:00pm 11.8 9.9 6.7 71 2.4 NNW 6 7 3 4 1012.1 1012.1 0.0
23/10:30pm 12.5 10.6 6.5 67 2.9 NNW 6 7 3 4 1012.4 - 0.0
23/10:00pm 12.9 10.9 7.1 68 2.8 NW 7 11 4 6 1012.5 1012.5 0.0
23/09:30pm 13.2 11.5 7.6 69 2.7 NNW 6 9 3 5 1012.7 - 0.0
23/09:00pm 14.0 12.1 9.2 73 2.4 N 9 11 5 6 1012.7 1012.7 0.0
23/08:30pm 14.4 13.1 9.8 74 2.4 N 7 11 4 6 1012.9 - 0.0
23/08:00pm 14.5 12.9 10.3 76 2.2 N 9 13 5 7 1013.1 1013.1 0.0
23/07:30pm 14.7 13.5 9.5 71 2.7 N 6 7 3 4 1013.1 - 0.0
23/07:00pm 14.4 13.1 7.7 64 3.3 NW 4 4 2 2 1013.0 1013.0 0.0
23/06:30pm 14.7 13.3 7.3 61 3.6 NW 4 4 2 2 1012.9 - 0.0
23/06:00pm 15.1 13.7 7.4 60 3.8 WNW 4 6 2 3 1012.9 1012.9 0.0
23/05:30pm 15.7 13.7 7.2 57 4.2 WNW 7 11 4 6 1012.9 - 0.0
23/05:00pm 16.2 13.8 6.9 54 4.6 WNW 9 13 5 7 1012.9 1012.9 0.0
23/04:30pm 17.8 14.6 6.7 48 5.5 WNW 13 20 7 11 1013.2 - 0.0
23/04:00pm 18.0 14.8 6.8 48 5.6 WNW 13 20 7 11 1013.4 1013.4 0.0
23/03:30pm 18.1 14.3 6.0 45 5.9 WNW 15 22 8 12 1013.5 - 0.0
23/03:00pm 17.9 15.1 7.0 49 5.4 WNW 11 15 6 8 1013.6 1013.6 0.0
23/02:30pm 17.2 14.0 6.7 50 5.2 WNW 13 20 7 11 1013.7 - 0.0
23/02:00pm 17.3 14.8 8.2 55 4.6 WNW 11 17 6 9 1013.9 1013.9 0.0
23/01:30pm 16.7 14.8 9.1 61 3.9 WNW 9 13 5 7 1014.2 - 0.0
23/01:00pm 17.4 15.3 9.8 61 4.0 NW 11 19 6 10 1014.9 1014.9 0.0
23/12:30pm 16.4 14.1 9.1 62 3.8 WNW 11 17 6 9 1015.4 - 0.0
23/12:00pm 16.4 13.9 9.8 65 3.4 WNW 13 19 7 10 1016.1 1016.1 0.0
23/11:30am 16.0 13.9 11.0 72 2.7 WNW 13 17 7 9 1016.3 - 0.0
23/11:00am 15.2 13.6 11.4 78 2.0 WNW 11 17 6 9 1016.5 1016.5 0.0
23/10:30am 14.6 13.2 11.0 79 1.9 NW 9 13 5 7 1016.7 - 0.0
23/10:00am 13.9 12.6 11.2 84 1.4 NW 9 11 5 6 1017.0 1017.0 0.0
23/09:30am 13.0 12.2 11.7 92 0.7 NW 7 11 4 6 1017.2 - 0.0
23/09:00am 11.5 10.3 10.4 93 0.6 NW 7 9 4 5 1017.4 1017.4 0.0
23/08:30am 10.1 8.8 9.2 94 0.4 NW 6 7 3 4 1017.2 - 0.0
23/08:00am 8.1 6.1 7.2 94 0.4 W 7 9 4 5 1016.8 1016.8 0.0
23/07:30am 7.1 4.5 6.2 94 0.4 NW 9 11 5 6 1016.7 - 0.0
23/07:00am 6.7 4.6 5.8 94 0.4 WNW 6 7 3 4 1016.6 1016.6 0.0
23/06:30am 6.3 4.5 5.3 93 0.4 WNW 4 6 2 3 1016.6 - 0.0
23/06:00am 7.0 4.4 5.9 93 0.5 WNW 9 11 5 6 1016.6 1016.6 0.0
23/05:30am 7.5 5.0 6.4 93 0.5 WNW 9 13 5 7 1016.6 - 0.0
23/05:00am 7.6 6.8 6.5 93 0.5 CALM 0 0 0 0 1016.4 1016.4 0.0
23/04:30am 7.8 6.3 6.7 93 0.5 WNW 4 6 2 3 1016.1 - 0.0
23/04:00am 8.3 6.9 7.2 93 0.5 WNW 4 6 2 3 1016.1 1016.1 0.0
23/03:30am 8.7 8.1 7.6 93 0.5 CALM 0 4 0 2 1016.1 - 0.0
23/03:00am 9.1 7.3 8.0 93 0.5 WNW 7 7 4 4 1016.5 1016.5 0.0
23/02:30am 9.4 7.9 8.3 93 0.5 WNW 6 7 3 4 1016.8 - 0.0
23/02:00am 10.0 9.4 8.9 93 0.5 W 2 2 1 1 1017.0 1017.0 0.0
23/01:30am 10.7 9.3 9.5 92 0.6 WNW 7 7 4 4 1017.1 - 0.0
23/01:00am 11.5 10.5 10.2 92 0.7 WNW 6 7 3 4 1017.3 1017.3 0.0
23/12:30am 11.5 10.8 10.2 92 0.7 WNW 4 6 2 3 1017.5 - 0.0
23/12:00am 11.7 10.5 10.4 92 0.7 WNW 7 9 4 5 1017.5 1017.5 0.0
 
Date/Time
EST
Tmp

°C
App
Tmp
°C
Dew
Point
°C
Rel
Hum
%
Delta-T

°C
Wind Press
QNH
hPa
Press
MSL
hPa
Rain
since
9 am
mm
Dir
 
Spd
km/h
Gust
km/h
Spd
kts
Gust
kts
22/11:30pm 11.8 11.2 10.5 92 0.7 WNW 4 4 2 2 1017.7 - 0.0
22/11:00pm 12.1 10.8 9.8 86 1.2 W 7 9 4 5 1017.8 1017.8 0.0
22/10:30pm 12.8 11.8 10.3 85 1.3 NW 6 6 3 3 1018.2 - 0.0
22/10:00pm 13.0 12.4 10.5 85 1.3 WNW 4 6 2 3 1018.2 1018.2 0.0
22/09:30pm 13.1 12.4 10.1 82 1.5 W 4 6 2 3 1018.0 - 0.0
22/09:00pm 13.0 12.0 10.2 83 1.4 WSW 6 6 3 3 1017.6 1017.6 0.0
22/08:30pm 13.1 12.5 10.3 83 1.4 WSW 4 6 2 3 1017.5 - 0.0
22/08:00pm 13.1 12.0 10.5 84 1.3 WSW 7 7 4 4 1017.4 1017.4 0.0
22/07:30pm 13.7 12.7 10.3 80 1.8 WSW 6 6 3 3 1017.2 - 0.0
22/07:00pm 14.4 12.9 10.6 78 2.0 SSW 9 11 5 6 1016.9 1016.9 0.0
22/06:30pm 14.9 13.4 10.7 76 2.2 S 9 11 5 6 1016.5 - 0.0
22/06:00pm 15.2 13.1 11.0 76 2.2 S 13 19 7 10 1016.2 1016.2 0.0
22/05:30pm 15.4 13.4 11.6 78 2.0 S 13 20 7 11 1015.9 - 0.0
22/05:00pm 15.6 13.3 11.8 78 2.1 S 15 20 8 11 1015.5 1015.5 0.0
22/04:30pm 15.8 14.1 12.4 80 1.9 S 13 17 7 9 1015.3 - 0.0
22/04:00pm 15.7 14.2 13.2 85 1.4 S 13 17 7 9 1015.0 1015.0 0.0
22/03:30pm 16.4 14.4 12.6 78 2.1 S 15 20 8 11 1014.7 - 0.0
22/03:00pm 16.6 15.9 14.2 86 1.4 S 11 15 6 8 1014.6 1014.6 0.0
22/02:30pm 16.3 15.7 14.7 90 0.9 S 11 17 6 9 1014.3 - 0.0
22/02:00pm 16.5 17.1 15.2 92 0.8 SSW 6 11 3 6 1014.2 1014.2 0.0
22/01:30pm 17.1 15.8 14.9 87 1.3 NW 15 20 8 11 1014.2 - 0.0
22/01:00pm 17.3 16.1 16.0 92 0.8 NW 17 22 9 12 1014.1 1014.1 0.0
22/12:30pm 16.1 15.2 14.8 92 0.7 NW 13 22 7 12 1014.6 - 0.0
22/12:00pm 16.4 16.3 14.9 91 0.9 WNW 9 17 5 9 1014.8 1014.8 0.0
22/11:30am 16.0 16.4 14.7 92 0.7 NW 6 11 3 6 1014.9 - 0.0
22/11:00am 15.1 15.9 13.8 92 0.7 NNE 2 6 1 3 1014.9 1014.9 0.0
22/10:30am 14.8 14.6 13.5 92 0.7 NNE 7 11 4 6 1014.7 - 0.0
22/10:00am 14.4 13.7 13.1 92 0.7 NNE 9 15 5 8 1014.7 1014.7 0.0
22/09:30am 14.1 12.9 12.7 91 0.8 NNE 11 17 6 9 1014.5 - 0.0
22/09:00am 13.7 11.6 12.4 92 0.7 NNE 15 22 8 12 1014.4 1014.4 9.2
22/08:30am 13.0 11.9 11.9 93 0.6 NE 9 13 5 7 1014.6 - 9.2
22/08:00am 13.3 11.5 12.2 93 0.6 NNE 13 20 7 11 1014.3 1014.3 9.2
22/07:30am 13.3 11.5 12.2 93 0.6 N 13 19 7 10 1013.5 - 9.2
22/07:00am 13.3 11.1 12.2 93 0.6 N 15 20 8 11 1014.4 1014.4 8.0
22/06:30am 13.4 12.0 12.1 92 0.7 NNW 11 19 6 10 1014.6 - 6.6
22/06:00am 13.8 12.1 12.5 92 0.7 WNW 13 20 7 11 1014.8 1014.8 5.2
22/05:30am 13.6 11.9 12.3 92 0.7 N 13 24 7 13 1013.7 - 3.4
22/05:00am 13.4 12.2 11.6 89 1.0 N 9 13 5 7 1013.0 1013.0 1.8
22/04:30am 14.0 12.1 9.2 73 2.4 NNW 9 13 5 7 1013.6 - 1.0
22/04:00am 15.6 12.9 8.8 64 3.5 N 13 20 7 11 1012.9 1012.9 0.2
22/03:30am 15.2 13.9 9.3 68 3.0 NW 6 13 3 7 1012.7 - 0.0
22/03:00am 14.8 13.6 9.4 70 2.8 E 6 7 3 4 1012.4 1012.4 0.0
22/02:30am 14.8 14.3 9.4 70 2.8 S 2 6 1 3 1013.4 - 0.0
22/02:00am 15.5 13.5 8.5 63 3.5 WSW 9 13 5 7 1014.0 1014.0 0.0
22/01:30am 17.6 13.2 6.5 48 5.5 N 19 28 10 15 1012.8 - 0.0
22/01:00am 17.7 13.0 5.9 46 5.8 NNW 20 30 11 16 1013.4 1013.4 0.0
22/12:30am 17.5 14.1 5.8 46 5.7 NW 13 24 7 13 1013.2 - 0.0
22/12:00am 17.3 12.6 6.2 48 5.4 N 20 35 11 19 1013.0 1013.0 0.0
 
Date/Time
EST
Tmp

°C
App
Tmp
°C
Dew
Point
°C
Rel
Hum
%
Delta-T

°C
Wind Press
QNH
hPa
Press
MSL
hPa
Rain
since
9 am
mm
Dir
 
Spd
km/h
Gust
km/h
Spd
kts
Gust
kts
21/11:30pm 17.5 12.0 6.1 47 5.6 N 24 33 13 18 1012.7 - 0.0
21/11:00pm 17.6 11.8 6.2 47 5.6 N 26 39 14 21 1012.5 1012.5 0.0

Latest Capital City Observations: Canberra | Sydney | Melbourne | Brisbane | Adelaide | Perth | Hobart | Darwin

Other Formats:

Comma delimited format used in spreadsheet applications
http://www.bom.gov.au/fwo/IDV60901/IDV60901.94857.axf

JavaScript Object Notation format (JSON) in row-major order
http://www.bom.gov.au/fwo/IDV60901/IDV60901.94857.json